sensor_id;sensor_type;location;lat;lon;timestamp;pressure;altitude;pressure_sealevel;temperature;humidity
35676;BME280;21790;42.668;23.298;2023-07-28T00:02:28;94756.88;;;24.34;34.19
35676;BME280;21790;42.668;23.298;2023-07-28T00:04:57;94750.19;;;24.24;34.17
35676;BME280;21790;42.668;23.298;2023-07-28T00:07:58;94758.88;;;24.26;34.38
35676;BME280;21790;42.668;23.298;2023-07-28T00:10:42;94767.47;;;24.20;34.44
35676;BME280;21790;42.668;23.298;2023-07-28T00:16:15;94749.56;;;24.17;34.21
35676;BME280;21790;42.668;23.298;2023-07-28T00:18:42;94756.28;;;23.94;34.52
35676;BME280;21790;42.668;23.298;2023-07-28T00:21:29;94756.22;;;24.07;34.36
35676;BME280;21790;42.668;23.298;2023-07-28T00:24:13;94758.25;;;24.06;34.18
35676;BME280;21790;42.668;23.298;2023-07-28T00:27:01;94750.22;;;24.10;33.95
35676;BME280;21790;42.668;23.298;2023-07-28T00:29:38;94747.69;;;23.99;33.90
35676;BME280;21790;42.668;23.298;2023-07-28T00:32:31;94755.50;;;23.93;34.16
35676;BME280;21790;42.668;23.298;2023-07-28T00:35:42;94743.72;;;23.82;33.87
35676;BME280;21790;42.668;23.298;2023-07-28T00:41:25;94736.81;;;23.69;34.02
35676;BME280;21790;42.668;23.298;2023-07-28T00:44:04;94750.78;;;23.75;34.20
35676;BME280;21790;42.668;23.298;2023-07-28T00:46:44;94752.97;;;23.69;34.30
35676;BME280;21790;42.668;23.298;2023-07-28T00:52:34;94751.03;;;23.98;34.86
35676;BME280;21790;42.668;23.298;2023-07-28T00:55:03;94749.50;;;23.76;35.41
35676;BME280;21790;42.668;23.298;2023-07-28T00:57:35;94732.94;;;23.46;35.90
35676;BME280;21790;42.668;23.298;2023-07-28T01:00:23;94763.31;;;23.66;35.89
35676;BME280;21790;42.668;23.298;2023-07-28T01:03:09;94751.56;;;23.62;36.00
35676;BME280;21790;42.668;23.298;2023-07-28T01:09:23;94757.59;;;23.80;35.37
35676;BME280;21790;42.668;23.298;2023-07-28T01:11:59;94762.00;;;23.67;35.81
35676;BME280;21790;42.668;23.298;2023-07-28T01:14:30;94764.44;;;23.50;36.24
35676;BME280;21790;42.668;23.298;2023-07-28T01:17:18;94767.88;;;23.30;36.62
35676;BME280;21790;42.668;23.298;2023-07-28T01:19:50;94752.59;;;23.39;36.72
35676;BME280;21790;42.668;23.298;2023-07-28T01:29:03;94762.44;;;23.58;35.89
35676;BME280;21790;42.668;23.298;2023-07-28T01:34:46;94758.69;;;23.16;36.81
35676;BME280;21790;42.668;23.298;2023-07-28T01:40:52;94745.56;;;23.19;36.70
35676;BME280;21790;42.668;23.298;2023-07-28T01:43:42;94759.66;;;23.06;36.84
35676;BME280;21790;42.668;23.298;2023-07-28T01:46:27;94753.91;;;22.98;36.79
35676;BME280;21790;42.668;23.298;2023-07-28T01:49:15;94760.09;;;23.10;36.61
35676;BME280;21790;42.668;23.298;2023-07-28T01:51:51;94751.00;;;23.04;36.74
35676;BME280;21790;42.668;23.298;2023-07-28T01:54:28;94757.41;;;22.91;36.97
35676;BME280;21790;42.668;23.298;2023-07-28T01:57:14;94759.22;;;22.88;37.33
35676;BME280;21790;42.668;23.298;2023-07-28T01:59:43;94770.28;;;22.86;36.87
35676;BME280;21790;42.668;23.298;2023-07-28T02:02:13;94760.75;;;22.76;37.11
35676;BME280;21790;42.668;23.298;2023-07-28T02:08:03;94767.56;;;22.81;37.11
35676;BME280;21790;42.668;23.298;2023-07-28T02:10:44;94741.00;;;22.63;37.14
35676;BME280;21790;42.668;23.298;2023-07-28T02:13:16;94755.28;;;22.65;37.01
35676;BME280;21790;42.668;23.298;2023-07-28T02:16:06;94762.00;;;22.62;37.54
35676;BME280;21790;42.668;23.298;2023-07-28T02:18:33;94753.84;;;22.45;37.86
35676;BME280;21790;42.668;23.298;2023-07-28T02:21:16;94755.56;;;22.48;37.47
35676;BME280;21790;42.668;23.298;2023-07-28T02:23:44;94760.78;;;22.44;37.95
35676;BME280;21790;42.668;23.298;2023-07-28T02:26:15;94758.38;;;22.48;37.79
35676;BME280;21790;42.668;23.298;2023-07-28T02:29:17;94769.25;;;22.58;37.42
35676;BME280;21790;42.668;23.298;2023-07-28T02:35:19;94773.88;;;22.42;37.82
35676;BME280;21790;42.668;23.298;2023-07-28T02:41:07;94770.13;;;22.52;37.64
35676;BME280;21790;42.668;23.298;2023-07-28T02:43:59;94770.16;;;22.34;38.23
35676;BME280;21790;42.668;23.298;2023-07-28T02:49:42;94773.69;;;22.21;38.52
35676;BME280;21790;42.668;23.298;2023-07-28T02:55:31;94763.38;;;22.10;38.51
35676;BME280;21790;42.668;23.298;2023-07-28T02:58:01;94770.69;;;22.19;38.49
35676;BME280;21790;42.668;23.298;2023-07-28T03:00:30;94754.38;;;22.31;38.27
35676;BME280;21790;42.668;23.298;2023-07-28T03:03:25;94769.25;;;22.26;38.43
35676;BME280;21790;42.668;23.298;2023-07-28T03:05:54;94767.69;;;22.30;38.29
35676;BME280;21790;42.668;23.298;2023-07-28T03:15:45;94777.06;;;22.20;38.69
35676;BME280;21790;42.668;23.298;2023-07-28T03:18:23;94784.94;;;22.21;38.32
35676;BME280;21790;42.668;23.298;2023-07-28T03:21:03;94780.09;;;22.22;38.11
35676;BME280;21790;42.668;23.298;2023-07-28T03:23:37;94780.50;;;22.13;38.53
35676;BME280;21790;42.668;23.298;2023-07-28T03:29:25;94781.19;;;22.00;38.72
35676;BME280;21790;42.668;23.298;2023-07-28T03:32:01;94798.22;;;22.07;38.51
35676;BME280;21790;42.668;23.298;2023-07-28T03:38:03;94786.28;;;22.01;38.46
35676;BME280;21790;42.668;23.298;2023-07-28T03:43:52;94796.63;;;22.12;38.69
35676;BME280;21790;42.668;23.298;2023-07-28T03:49:46;94801.72;;;22.14;38.64
35676;BME280;21790;42.668;23.298;2023-07-28T03:55:13;94785.03;;;22.16;38.39
35676;BME280;21790;42.668;23.298;2023-07-28T03:57:45;94797.88;;;22.30;38.30
35676;BME280;21790;42.668;23.298;2023-07-28T04:00:20;94794.06;;;22.27;37.99
35676;BME280;21790;42.668;23.298;2023-07-28T04:03:05;94789.19;;;22.28;38.09
35676;BME280;21790;42.668;23.298;2023-07-28T04:05:37;94794.31;;;22.42;37.97
35676;BME280;21790;42.668;23.298;2023-07-28T04:11:19;94800.47;;;22.28;37.70
35676;BME280;21790;42.668;23.298;2023-07-28T04:14:02;94803.78;;;22.45;37.99
35676;BME280;21790;42.668;23.298;2023-07-28T06:41:16;94761.63;;;26.62;30.60
35676;BME280;21790;42.668;23.298;2023-07-28T06:43:44;94772.38;;;26.71;30.88
35676;BME280;21790;42.668;23.298;2023-07-28T06:52:25;94774.84;;;26.90;30.67
35676;BME280;21790;42.668;23.298;2023-07-28T06:58:28;94775.78;;;27.15;30.47
35676;BME280;21790;42.668;23.298;2023-07-28T07:01:07;94768.59;;;27.22;30.37
35676;BME280;21790;42.668;23.298;2023-07-28T07:03:42;94768.19;;;27.33;29.67
35676;BME280;21790;42.668;23.298;2023-07-28T07:06:17;94765.78;;;26.99;30.61
35676;BME280;21790;42.668;23.298;2023-07-28T07:09:17;94771.38;;;27.29;30.66
35676;BME280;21790;42.668;23.298;2023-07-28T07:12:14;94770.19;;;27.63;30.09
35676;BME280;21790;42.668;23.298;2023-07-28T07:18:13;94762.72;;;27.82;29.29
35676;BME280;21790;42.668;23.298;2023-07-28T07:21:01;94739.91;;;27.65;29.27
35676;BME280;21790;42.668;23.298;2023-07-28T07:26:31;94768.72;;;27.54;29.73
35676;BME280;21790;42.668;23.298;2023-07-28T07:29:15;94774.63;;;27.88;28.92
35676;BME280;21790;42.668;23.298;2023-07-28T07:32:01;94767.72;;;28.07;29.16
35676;BME280;21790;42.668;23.298;2023-07-28T07:34:47;94770.91;;;28.11;28.43
35676;BME280;21790;42.668;23.298;2023-07-28T07:41:00;94778.81;;;27.87;28.83
35676;BME280;21790;42.668;23.298;2023-07-28T07:43:28;94775.19;;;27.17;29.37
35676;BME280;21790;42.668;23.298;2023-07-28T07:52:17;94770.78;;;28.01;28.75
35676;BME280;21790;42.668;23.298;2023-07-28T07:54:48;94774.41;;;28.34;28.41
35676;BME280;21790;42.668;23.298;2023-07-28T07:57:16;94772.50;;;28.37;28.07
35676;BME280;21790;42.668;23.298;2023-07-28T07:59:49;94771.91;;;28.38;27.73
35676;BME280;21790;42.668;23.298;2023-07-28T08:02:17;94782.56;;;28.62;28.27
35676;BME280;21790;42.668;23.298;2023-07-28T08:04:46;94766.59;;;28.75;28.03
35676;BME280;21790;42.668;23.298;2023-07-28T08:07:24;94765.69;;;28.32;28.62
35676;BME280;21790;42.668;23.298;2023-07-28T08:13:16;94765.22;;;29.00;27.99
35676;BME280;21790;42.668;23.298;2023-07-28T08:15:48;94751.09;;;29.10;27.75
35676;BME280;21790;42.668;23.298;2023-07-28T08:18:21;94767.66;;;29.21;27.49
35676;BME280;21790;42.668;23.298;2023-07-28T08:20:49;94769.34;;;29.07;27.42
35676;BME280;21790;42.668;23.298;2023-07-28T08:23:16;94757.03;;;29.22;27.30
35676;BME280;21790;42.668;23.298;2023-07-28T08:26:02;94767.72;;;29.56;27.60
35676;BME280;21790;42.668;23.298;2023-07-28T08:28:32;94766.47;;;29.66;27.28
35676;BME280;21790;42.668;23.298;2023-07-28T08:31:08;94760.66;;;29.74;26.90
35676;BME280;21790;42.668;23.298;2023-07-28T08:36:55;94744.16;;;28.79;27.94
35676;BME280;21790;42.668;23.298;2023-07-28T08:43:08;94762.06;;;28.64;28.20
35676;BME280;21790;42.668;23.298;2023-07-28T08:54:58;94750.03;;;28.48;28.07
35676;BME280;21790;42.668;23.298;2023-07-28T08:57:33;94736.84;;;28.68;27.90
35676;BME280;21790;42.668;23.298;2023-07-28T09:00:07;94739.03;;;29.02;27.79
35676;BME280;21790;42.668;23.298;2023-07-28T09:02:48;94738.47;;;28.79;27.88
35676;BME280;21790;42.668;23.298;2023-07-28T09:08:40;94717.03;;;29.71;27.45
35676;BME280;21790;42.668;23.298;2023-07-28T09:11:18;94711.66;;;29.92;27.29
35676;BME280;21790;42.668;23.298;2023-07-28T09:17:26;94713.78;;;30.28;26.07
35676;BME280;21790;42.668;23.298;2023-07-28T09:19:56;94712.91;;;30.26;26.07
35676;BME280;21790;42.668;23.298;2023-07-28T09:22:53;94712.03;;;30.33;25.86
35676;BME280;21790;42.668;23.298;2023-07-28T09:25:23;94697.91;;;30.35;25.98
35676;BME280;21790;42.668;23.298;2023-07-28T09:27:56;94696.75;;;30.38;25.59
35676;BME280;21790;42.668;23.298;2023-07-28T09:30:45;94689.75;;;30.49;25.69
35676;BME280;21790;42.668;23.298;2023-07-28T09:36:38;94679.16;;;30.68;25.88
35676;BME280;21790;42.668;23.298;2023-07-28T09:39:34;94675.91;;;30.91;25.37
35676;BME280;21790;42.668;23.298;2023-07-28T09:42:27;94674.00;;;31.03;25.35
35676;BME280;21790;42.668;23.298;2023-07-28T09:44:58;94670.56;;;31.14;25.17
35676;BME280;21790;42.668;23.298;2023-07-28T09:47:26;94662.53;;;30.84;24.29
35676;BME280;21790;42.668;23.298;2023-07-28T09:50:09;94649.75;;;30.85;25.15
35676;BME280;21790;42.668;23.298;2023-07-28T09:52:43;94665.44;;;31.13;25.32
35676;BME280;21790;42.668;23.298;2023-07-28T09:55:16;94663.66;;;31.17;24.91
35676;BME280;21790;42.668;23.298;2023-07-28T09:57:52;94659.00;;;31.12;25.04
35676;BME280;21790;42.668;23.298;2023-07-28T10:03:46;94642.47;;;31.40;23.66
35676;BME280;21790;42.668;23.298;2023-07-28T10:06:37;94655.22;;;31.48;23.80
35676;BME280;21790;42.668;23.298;2023-07-28T10:12:18;94649.25;;;31.64;24.32
35676;BME280;21790;42.668;23.298;2023-07-28T10:15:18;94662.41;;;31.88;23.71
35676;BME280;21790;42.668;23.298;2023-07-28T10:18:01;94634.03;;;31.61;23.45
35676;BME280;21790;42.668;23.298;2023-07-28T10:41:16;94628.47;;;31.05;24.18
35676;BME280;21790;42.668;23.298;2023-07-28T10:43:45;94616.47;;;31.36;24.79
35676;BME280;21790;42.668;23.298;2023-07-28T10:46:20;94617.19;;;31.65;24.52
35676;BME280;21790;42.668;23.298;2023-07-28T10:52:13;94612.88;;;32.05;24.27
35676;BME280;21790;42.668;23.298;2023-07-28T10:54:48;94608.31;;;31.80;24.19
35676;BME280;21790;42.668;23.298;2023-07-28T10:57:27;94610.44;;;31.61;23.82
35676;BME280;21790;42.668;23.298;2023-07-28T11:00:00;94579.16;;;31.63;23.94
35676;BME280;21790;42.668;23.298;2023-07-28T11:02:54;94577.44;;;31.88;24.10
35676;BME280;21790;42.668;23.298;2023-07-28T11:05:44;94592.38;;;32.08;24.33
35676;BME280;21790;42.668;23.298;2023-07-28T11:08:33;94581.38;;;32.24;24.10
35676;BME280;21790;42.668;23.298;2023-07-28T11:18:02;94567.16;;;32.35;23.57
35676;BME280;21790;42.668;23.298;2023-07-28T11:20:39;94565.94;;;32.38;23.18
35676;BME280;21790;42.668;23.298;2023-07-28T11:23:16;94561.53;;;32.47;23.32
35676;BME280;21790;42.668;23.298;2023-07-28T11:25:46;94559.91;;;32.44;22.77
35676;BME280;21790;42.668;23.298;2023-07-28T11:28:46;94564.78;;;32.53;22.61
35676;BME280;21790;42.668;23.298;2023-07-28T11:31:24;94553.09;;;32.49;22.87
35676;BME280;21790;42.668;23.298;2023-07-28T11:36:52;94538.53;;;32.66;23.08
35676;BME280;21790;42.668;23.298;2023-07-28T11:39:47;94549.56;;;32.82;23.38
35676;BME280;21790;42.668;23.298;2023-07-28T11:45:52;94539.06;;;32.74;22.45
35676;BME280;21790;42.668;23.298;2023-07-28T11:48:42;94536.84;;;32.73;21.69
35676;BME280;21790;42.668;23.298;2023-07-28T11:51:12;94534.72;;;32.73;22.43
35676;BME280;21790;42.668;23.298;2023-07-28T11:54:06;94538.22;;;32.41;22.05
35676;BME280;21790;42.668;23.298;2023-07-28T11:56:51;94540.78;;;32.16;22.76
35676;BME280;21790;42.668;23.298;2023-07-28T12:59:42;94494.00;;;31.80;24.78
35676;BME280;21790;42.668;23.298;2023-07-28T13:02:14;94493.47;;;31.93;24.90
35676;BME280;21790;42.668;23.298;2023-07-28T13:04:41;94494.00;;;32.11;24.77
35676;BME280;21790;42.668;23.298;2023-07-28T13:07:33;94488.13;;;32.40;24.07
35676;BME280;21790;42.668;23.298;2023-07-28T13:10:11;94476.00;;;32.51;24.36
35676;BME280;21790;42.668;23.298;2023-07-28T13:12:47;94475.03;;;32.58;23.88
35676;BME280;21790;42.668;23.298;2023-07-28T13:15:23;94463.41;;;32.45;24.16
35676;BME280;21790;42.668;23.298;2023-07-28T13:17:54;94458.13;;;32.41;24.62
35676;BME280;21790;42.668;23.298;2023-07-28T13:20:23;94452.22;;;32.27;24.09
35676;BME280;21790;42.668;23.298;2023-07-28T13:23:07;94445.88;;;31.77;23.33
35676;BME280;21790;42.668;23.298;2023-07-28T13:25:40;94442.69;;;31.82;24.10
35676;BME280;21790;42.668;23.298;2023-07-28T13:28:12;94454.25;;;32.15;24.21
35676;BME280;21790;42.668;23.298;2023-07-28T13:30:48;94446.25;;;32.23;24.04
35676;BME280;21790;42.668;23.298;2023-07-28T13:36:19;94447.41;;;32.51;23.90
35676;BME280;21790;42.668;23.298;2023-07-28T13:42:23;94446.66;;;32.62;23.94
35676;BME280;21790;42.668;23.298;2023-07-28T13:44:51;94440.44;;;32.12;24.09
35676;BME280;21790;42.668;23.298;2023-07-28T13:50:50;94443.91;;;32.31;24.64
35676;BME280;21790;42.668;23.298;2023-07-28T13:53:35;94446.53;;;31.96;23.75
35676;BME280;21790;42.668;23.298;2023-07-28T13:56:25;94443.78;;;32.29;23.82
35676;BME280;21790;42.668;23.298;2023-07-28T13:58:55;94452.00;;;32.35;24.22
35676;BME280;21790;42.668;23.298;2023-07-28T14:05:04;94434.66;;;32.43;23.87
35676;BME280;21790;42.668;23.298;2023-07-28T14:07:45;94440.91;;;32.51;24.30
35676;BME280;21790;42.668;23.298;2023-07-28T14:10:24;94425.38;;;32.54;23.99
35676;BME280;21790;42.668;23.298;2023-07-28T14:13:05;94432.03;;;32.68;24.11
35676;BME280;21790;42.668;23.298;2023-07-28T14:15:44;94430.13;;;32.61;23.56
35676;BME280;21790;42.668;23.298;2023-07-28T14:18:27;94434.19;;;32.67;24.35
35676;BME280;21790;42.668;23.298;2023-07-28T14:21:00;94433.47;;;32.57;24.06
35676;BME280;21790;42.668;23.298;2023-07-28T14:23:29;94435.47;;;32.55;23.99
35676;BME280;21790;42.668;23.298;2023-07-28T14:25:58;94428.50;;;32.58;23.83
35676;BME280;21790;42.668;23.298;2023-07-28T14:28:46;94427.47;;;32.53;24.53
35676;BME280;21790;42.668;23.298;2023-07-28T14:31:22;94417.78;;;32.25;24.23
35676;BME280;21790;42.668;23.298;2023-07-28T14:34:01;94420.25;;;32.52;23.85
35676;BME280;21790;42.668;23.298;2023-07-28T14:36:30;94427.47;;;32.53;24.42
35676;BME280;21790;42.668;23.298;2023-07-28T14:39:05;94422.31;;;32.61;24.29
35676;BME280;21790;42.668;23.298;2023-07-28T14:41:38;94434.44;;;32.50;24.50
35676;BME280;21790;42.668;23.298;2023-07-28T14:44:12;94420.91;;;32.62;23.93
35676;BME280;21790;42.668;23.298;2023-07-28T14:46:40;94418.50;;;32.68;24.20
35676;BME280;21790;42.668;23.298;2023-07-28T14:49:08;94418.13;;;32.74;24.42
35676;BME280;21790;42.668;23.298;2023-07-28T14:57:48;94409.03;;;32.66;24.58
35676;BME280;21790;42.668;23.298;2023-07-28T16:05:09;94438.34;;;32.33;22.79
35676;BME280;21790;42.668;23.298;2023-07-28T16:07:41;94446.28;;;32.35;22.81
35676;BME280;21790;42.668;23.298;2023-07-28T16:10:12;94434.13;;;32.34;22.73
35676;BME280;21790;42.668;23.298;2023-07-28T16:12:39;94438.94;;;32.32;22.77
35676;BME280;21790;42.668;23.298;2023-07-28T16:15:27;94442.22;;;32.38;22.84
35676;BME280;21790;42.668;23.298;2023-07-28T16:17:56;94436.78;;;32.21;22.36
35676;BME280;21790;42.668;23.298;2023-07-28T16:23:08;94441.81;;;32.32;22.30
35676;BME280;21790;42.668;23.298;2023-07-28T16:25:59;94445.50;;;32.23;22.25
35676;BME280;21790;42.668;23.298;2023-07-28T16:28:27;94441.88;;;32.22;22.39
35676;BME280;21790;42.668;23.298;2023-07-28T16:31:25;94442.69;;;32.13;22.04
35676;BME280;21790;42.668;23.298;2023-07-28T16:34:06;94441.78;;;32.11;21.56
35676;BME280;21790;42.668;23.298;2023-07-28T16:36:56;94444.47;;;32.18;21.61
35676;BME280;21790;42.668;23.298;2023-07-28T16:39:27;94446.59;;;32.18;21.76
35676;BME280;21790;42.668;23.298;2023-07-28T16:42:06;94454.28;;;32.06;21.75
35676;BME280;21790;42.668;23.298;2023-07-28T16:44:59;94457.31;;;32.08;21.76
35676;BME280;21790;42.668;23.298;2023-07-28T16:47:31;94451.72;;;32.10;21.73
35676;BME280;21790;42.668;23.298;2023-07-28T16:50:19;94464.81;;;32.13;21.89
35676;BME280;21790;42.668;23.298;2023-07-28T16:53:04;94463.59;;;32.16;22.03
35676;BME280;21790;42.668;23.298;2023-07-28T16:55:40;94461.63;;;32.09;22.22
35676;BME280;21790;42.668;23.298;2023-07-28T17:01:09;94472.94;;;32.07;22.04
35676;BME280;21790;42.668;23.298;2023-07-28T17:03:48;94467.34;;;32.09;21.72
35676;BME280;21790;42.668;23.298;2023-07-28T17:06:17;94464.06;;;32.03;21.68
35676;BME280;21790;42.668;23.298;2023-07-28T17:08:44;94468.31;;;32.02;21.92
35676;BME280;21790;42.668;23.298;2023-07-28T17:11:32;94475.06;;;32.06;22.20
35676;BME280;21790;42.668;23.298;2023-07-28T17:14:04;94474.78;;;32.02;22.33
35676;BME280;21790;42.668;23.298;2023-07-28T17:19:37;94478.69;;;31.97;22.13
35676;BME280;21790;42.668;23.298;2023-07-28T17:22:20;94485.06;;;31.95;22.46
35676;BME280;21790;42.668;23.298;2023-07-28T17:24:54;94493.09;;;31.78;22.94
35676;BME280;21790;42.668;23.298;2023-07-28T17:33:21;94490.00;;;31.64;23.21
35676;BME280;21790;42.668;23.298;2023-07-28T17:36:00;94497.34;;;31.67;23.31
35676;BME280;21790;42.668;23.298;2023-07-28T17:38:45;94500.22;;;31.67;23.03
35676;BME280;21790;42.668;23.298;2023-07-28T17:41:16;94499.03;;;31.61;23.36
35676;BME280;21790;42.668;23.298;2023-07-28T17:44:02;94497.41;;;31.58;23.29
35676;BME280;21790;42.668;23.298;2023-07-28T17:46:44;94500.53;;;31.52;23.21
35676;BME280;21790;42.668;23.298;2023-07-28T17:49:19;94503.72;;;31.46;23.59
35676;BME280;21790;42.668;23.298;2023-07-28T17:55:29;94508.88;;;31.29;23.77
35676;BME280;21790;42.668;23.298;2023-07-28T17:58:25;94521.19;;;31.31;23.83
35676;BME280;21790;42.668;23.298;2023-07-28T18:00:59;94515.66;;;31.24;24.00
35676;BME280;21790;42.668;23.298;2023-07-28T18:07:04;94520.63;;;31.13;24.06
35676;BME280;21790;42.668;23.298;2023-07-28T18:13:08;94522.75;;;31.03;24.55
35676;BME280;21790;42.668;23.298;2023-07-28T18:15:45;94519.25;;;30.95;24.60
35676;BME280;21790;42.668;23.298;2023-07-28T18:18:35;94520.91;;;30.89;24.79
35676;BME280;21790;42.668;23.298;2023-07-28T18:21:35;94522.41;;;30.90;24.77
35676;BME280;21790;42.668;23.298;2023-07-28T18:24:12;94523.78;;;30.79;24.56
35676;BME280;21790;42.668;23.298;2023-07-28T18:26:49;94526.31;;;30.75;24.93
35676;BME280;21790;42.668;23.298;2023-07-28T18:29:35;94517.03;;;30.74;25.22
35676;BME280;21790;42.668;23.298;2023-07-28T18:32:20;94524.66;;;30.72;25.26
35676;BME280;21790;42.668;23.298;2023-07-28T18:35:01;94529.78;;;30.73;25.12
35676;BME280;21790;42.668;23.298;2023-07-28T18:37:40;94529.91;;;30.66;24.98
35676;BME280;21790;42.668;23.298;2023-07-28T18:40:49;94532.94;;;30.68;25.18
35676;BME280;21790;42.668;23.298;2023-07-28T18:43:22;94528.41;;;30.55;25.47
35676;BME280;21790;42.668;23.298;2023-07-28T18:45:48;94531.09;;;30.44;25.87
35676;BME280;21790;42.668;23.298;2023-07-28T18:48:34;94537.38;;;30.42;25.93
35676;BME280;21790;42.668;23.298;2023-07-28T18:51:07;94538.25;;;30.35;26.06
35676;BME280;21790;42.668;23.298;2023-07-28T18:54:03;94541.56;;;30.31;25.75
35676;BME280;21790;42.668;23.298;2023-07-28T18:56:33;94528.19;;;30.24;26.13
35676;BME280;21790;42.668;23.298;2023-07-28T18:59:09;94537.94;;;30.21;26.31
35676;BME280;21790;42.668;23.298;2023-07-28T19:01:41;94537.19;;;30.21;26.33
35676;BME280;21790;42.668;23.298;2023-07-28T19:04:32;94538.81;;;30.14;26.66
35676;BME280;21790;42.668;23.298;2023-07-28T19:10:42;94535.47;;;29.99;27.02
35676;BME280;21790;42.668;23.298;2023-07-28T19:13:14;94544.38;;;29.85;26.98
35676;BME280;21790;42.668;23.298;2023-07-28T19:15:46;94542.16;;;29.84;27.00
35676;BME280;21790;42.668;23.298;2023-07-28T19:21:33;94534.16;;;29.73;27.13
35676;BME280;21790;42.668;23.298;2023-07-28T19:24:12;94535.50;;;29.72;27.28
35676;BME280;21790;42.668;23.298;2023-07-28T19:26:44;94540.13;;;29.67;27.97
35676;BME280;21790;42.668;23.298;2023-07-28T19:29:23;94536.03;;;29.61;27.55
35676;BME280;21790;42.668;23.298;2023-07-28T19:32:02;94537.34;;;29.50;27.77
35676;BME280;21790;42.668;23.298;2023-07-28T19:34:40;94541.97;;;29.45;27.61
35676;BME280;21790;42.668;23.298;2023-07-28T19:37:12;94534.91;;;29.46;27.71
35676;BME280;21790;42.668;23.298;2023-07-28T19:40:14;94547.66;;;29.45;27.76
35676;BME280;21790;42.668;23.298;2023-07-28T19:42:53;94547.75;;;29.38;27.89
35676;BME280;21790;42.668;23.298;2023-07-28T19:45:33;94542.50;;;29.34;27.82
35676;BME280;21790;42.668;23.298;2023-07-28T19:48:04;94546.88;;;29.18;28.34
35676;BME280;21790;42.668;23.298;2023-07-28T19:50:33;94549.84;;;29.20;28.20
35676;BME280;21790;42.668;23.298;2023-07-28T19:53:06;94553.72;;;29.15;28.52
35676;BME280;21790;42.668;23.298;2023-07-28T19:55:40;94549.75;;;29.01;28.70
35676;BME280;21790;42.668;23.298;2023-07-28T19:58:08;94534.09;;;28.92;28.95
35676;BME280;21790;42.668;23.298;2023-07-28T20:00:37;94559.63;;;29.00;29.27
35676;BME280;21790;42.668;23.298;2023-07-28T20:03:21;94554.25;;;29.04;29.81
35676;BME280;21790;42.668;23.298;2023-07-28T20:08:57;94554.69;;;29.00;30.36
35676;BME280;21790;42.668;23.298;2023-07-28T20:11:23;94547.75;;;28.94;30.46
35676;BME280;21790;42.668;23.298;2023-07-28T20:13:53;94554.25;;;28.87;30.31
35676;BME280;21790;42.668;23.298;2023-07-28T20:16:30;94547.34;;;28.80;30.08
35676;BME280;21790;42.668;23.298;2023-07-28T20:19:02;94543.28;;;28.66;30.06
35676;BME280;21790;42.668;23.298;2023-07-28T20:24:24;94552.75;;;28.68;30.69
35676;BME280;21790;42.668;23.298;2023-07-28T20:27:02;94566.03;;;28.66;30.85
35676;BME280;21790;42.668;23.298;2023-07-28T20:29:31;94562.78;;;28.52;30.69
35676;BME280;21790;42.668;23.298;2023-07-28T20:32:05;94554.91;;;28.43;30.52
35676;BME280;21790;42.668;23.298;2023-07-28T20:34:47;94569.94;;;28.53;30.60
35676;BME280;21790;42.668;23.298;2023-07-28T20:37:22;94561.00;;;28.40;30.56
35676;BME280;21790;42.668;23.298;2023-07-28T20:39:50;94563.66;;;28.38;30.01
35676;BME280;21790;42.668;23.298;2023-07-28T20:42:20;94565.59;;;28.35;29.90
35676;BME280;21790;42.668;23.298;2023-07-28T20:45:13;94566.91;;;28.17;30.29
35676;BME280;21790;42.668;23.298;2023-07-28T20:47:41;94572.09;;;28.28;30.22
35676;BME280;21790;42.668;23.298;2023-07-28T20:50:12;94576.28;;;28.27;30.19
35676;BME280;21790;42.668;23.298;2023-07-28T20:52:41;94578.44;;;28.19;30.19
35676;BME280;21790;42.668;23.298;2023-07-28T20:55:16;94572.91;;;28.21;30.28
35676;BME280;21790;42.668;23.298;2023-07-28T20:57:42;94580.94;;;28.15;30.08
35676;BME280;21790;42.668;23.298;2023-07-28T21:00:11;94576.84;;;28.01;30.50
35676;BME280;21790;42.668;23.298;2023-07-28T21:02:46;94572.69;;;28.02;30.38
35676;BME280;21790;42.668;23.298;2023-07-28T21:05:25;94575.19;;;27.98;30.81
35676;BME280;21790;42.668;23.298;2023-07-28T21:07:55;94571.66;;;28.14;30.82
35676;BME280;21790;42.668;23.298;2023-07-28T21:10:31;94579.66;;;28.08;31.08
35676;BME280;21790;42.668;23.298;2023-07-28T21:13:03;94577.19;;;28.05;31.35
35676;BME280;21790;42.668;23.298;2023-07-28T21:15:35;94572.69;;;28.02;30.83
35676;BME280;21790;42.668;23.298;2023-07-28T21:18:03;94569.66;;;28.00;31.44
35676;BME280;21790;42.668;23.298;2023-07-28T21:20:31;94569.66;;;28.00;31.38
35676;BME280;21790;42.668;23.298;2023-07-28T21:22:57;94575.44;;;27.92;31.99
35676;BME280;21790;42.668;23.298;2023-07-28T21:25:39;94570.41;;;28.00;31.97
35676;BME280;21790;42.668;23.298;2023-07-28T21:28:21;94566.66;;;27.98;32.26
35676;BME280;21790;42.668;23.298;2023-07-28T21:30:57;94560.28;;;27.89;32.19
35676;BME280;21790;42.668;23.298;2023-07-28T21:33:29;94563.78;;;27.80;32.77
35676;BME280;21790;42.668;23.298;2023-07-28T21:36:00;94560.06;;;27.70;33.01
35676;BME280;21790;42.668;23.298;2023-07-28T21:41:39;94568.22;;;27.66;32.95
35676;BME280;21790;42.668;23.298;2023-07-28T21:44:10;94579.84;;;27.53;33.17
35676;BME280;21790;42.668;23.298;2023-07-28T21:46:37;94577.38;;;27.49;33.90
35676;BME280;21790;42.668;23.298;2023-07-28T21:49:10;94571.53;;;27.47;33.86
35676;BME280;21790;42.668;23.298;2023-07-28T21:51:57;94573.31;;;27.68;33.63
35676;BME280;21790;42.668;23.298;2023-07-28T21:54:23;94584.97;;;27.47;33.83
35676;BME280;21790;42.668;23.298;2023-07-28T21:56:56;94585.88;;;27.49;33.82
35676;BME280;21790;42.668;23.298;2023-07-28T21:59:37;94569.63;;;27.50;33.84
35676;BME280;21790;42.668;23.298;2023-07-28T22:02:20;94585.41;;;27.36;34.12